sensor_id;sensor_type;location;lat;lon;timestamp;temperature;humidity
5556;DHT22;2801;50.972;7.856;2023-02-11T00:01:25;2.50;99.90
5556;DHT22;2801;50.972;7.856;2023-02-11T00:03:54;2.50;99.90
5556;DHT22;2801;50.972;7.856;2023-02-11T00:06:22;2.50;99.90
5556;DHT22;2801;50.972;7.856;2023-02-11T00:08:49;2.50;99.90
5556;DHT22;2801;50.972;7.856;2023-02-11T00:11:18;2.50;99.90
5556;DHT22;2801;50.972;7.856;2023-02-11T00:13:46;2.50;99.90
5556;DHT22;2801;50.972;7.856;2023-02-11T00:16:17;2.50;99.90
5556;DHT22;2801;50.972;7.856;2023-02-11T00:18:45;2.50;99.90
5556;DHT22;2801;50.972;7.856;2023-02-11T00:21:18;2.50;99.90
5556;DHT22;2801;50.972;7.856;2023-02-11T00:23:50;2.50;99.90
5556;DHT22;2801;50.972;7.856;2023-02-11T00:26:21;2.50;99.90
5556;DHT22;2801;50.972;7.856;2023-02-11T00:28:50;2.40;99.90
5556;DHT22;2801;50.972;7.856;2023-02-11T00:31:19;2.30;99.90
5556;DHT22;2801;50.972;7.856;2023-02-11T00:33:48;2.20;99.90
5556;DHT22;2801;50.972;7.856;2023-02-11T00:36:18;2.00;99.90
5556;DHT22;2801;50.972;7.856;2023-02-11T00:38:48;2.00;99.90
5556;DHT22;2801;50.972;7.856;2023-02-11T00:41:17;2.00;99.90
5556;DHT22;2801;50.972;7.856;2023-02-11T00:43:44;2.00;99.90
5556;DHT22;2801;50.972;7.856;2023-02-11T00:46:12;1.90;99.90
5556;DHT22;2801;50.972;7.856;2023-02-11T00:48:39;1.90;99.90
5556;DHT22;2801;50.972;7.856;2023-02-11T00:51:06;2.00;99.90
5556;DHT22;2801;50.972;7.856;2023-02-11T00:53:34;2.00;99.90
5556;DHT22;2801;50.972;7.856;2023-02-11T00:56:01;2.00;99.90
5556;DHT22;2801;50.972;7.856;2023-02-11T00:58:29;2.00;99.90
5556;DHT22;2801;50.972;7.856;2023-02-11T01:00:56;2.10;99.90
5556;DHT22;2801;50.972;7.856;2023-02-11T01:03:23;2.10;99.90
5556;DHT22;2801;50.972;7.856;2023-02-11T01:05:50;2.10;99.90
5556;DHT22;2801;50.972;7.856;2023-02-11T01:08:18;2.10;99.90
5556;DHT22;2801;50.972;7.856;2023-02-11T01:10:56;2.20;99.90
5556;DHT22;2801;50.972;7.856;2023-02-11T01:13:24;2.20;99.90
5556;DHT22;2801;50.972;7.856;2023-02-11T01:15:53;2.20;99.90
5556;DHT22;2801;50.972;7.856;2023-02-11T01:18:21;2.20;99.90
5556;DHT22;2801;50.972;7.856;2023-02-11T01:20:48;2.20;99.90
5556;DHT22;2801;50.972;7.856;2023-02-11T01:23:16;2.20;99.90
5556;DHT22;2801;50.972;7.856;2023-02-11T01:25:44;2.20;99.90
5556;DHT22;2801;50.972;7.856;2023-02-11T01:28:20;2.30;99.90
5556;DHT22;2801;50.972;7.856;2023-02-11T01:30:50;2.30;99.90
5556;DHT22;2801;50.972;7.856;2023-02-11T01:33:17;2.30;99.90
5556;DHT22;2801;50.972;7.856;2023-02-11T01:35:45;2.30;99.90
5556;DHT22;2801;50.972;7.856;2023-02-11T01:38:21;2.30;99.90
5556;DHT22;2801;50.972;7.856;2023-02-11T01:40:58;2.30;99.90
5556;DHT22;2801;50.972;7.856;2023-02-11T01:46:35;2.20;99.90
5556;DHT22;2801;50.972;7.856;2023-02-11T01:49:08;2.20;99.90
5556;DHT22;2801;50.972;7.856;2023-02-11T01:51:43;2.20;99.90
5556;DHT22;2801;50.972;7.856;2023-02-11T01:54:21;2.20;99.90
5556;DHT22;2801;50.972;7.856;2023-02-11T01:57:12;2.30;99.90
5556;DHT22;2801;50.972;7.856;2023-02-11T01:59:56;2.30;99.90
5556;DHT22;2801;50.972;7.856;2023-02-11T02:08:16;2.30;99.90
5556;DHT22;2801;50.972;7.856;2023-02-11T02:10:51;2.40;99.90
5556;DHT22;2801;50.972;7.856;2023-02-11T02:13:22;2.40;99.90
5556;DHT22;2801;50.972;7.856;2023-02-11T02:15:53;2.30;99.90
5556;DHT22;2801;50.972;7.856;2023-02-11T02:21:43;2.30;99.90
5556;DHT22;2801;50.972;7.856;2023-02-11T02:24:49;2.30;99.90
5556;DHT22;2801;50.972;7.856;2023-02-11T02:27:40;2.40;99.90
5556;DHT22;2801;50.972;7.856;2023-02-11T02:33:52;2.40;99.90
5556;DHT22;2801;50.972;7.856;2023-02-11T02:36:38;2.40;99.90
5556;DHT22;2801;50.972;7.856;2023-02-11T02:39:23;2.40;99.90
5556;DHT22;2801;50.972;7.856;2023-02-11T02:41:54;2.40;99.90
5556;DHT22;2801;50.972;7.856;2023-02-11T02:44:22;2.40;99.90
5556;DHT22;2801;50.972;7.856;2023-02-11T02:46:50;2.40;99.90
5556;DHT22;2801;50.972;7.856;2023-02-11T02:49:17;2.40;99.90
5556;DHT22;2801;50.972;7.856;2023-02-11T02:57:34;2.40;99.90
5556;DHT22;2801;50.972;7.856;2023-02-11T03:00:33;2.40;99.90
5556;DHT22;2801;50.972;7.856;2023-02-11T03:06:12;2.30;99.90
5556;DHT22;2801;50.972;7.856;2023-02-11T03:08:59;2.30;99.90
5556;DHT22;2801;50.972;7.856;2023-02-11T03:11:37;2.30;99.90
5556;DHT22;2801;50.972;7.856;2023-02-11T03:14:08;2.30;99.90
5556;DHT22;2801;50.972;7.856;2023-02-11T03:16:38;2.40;99.90
5556;DHT22;2801;50.972;7.856;2023-02-11T03:19:12;2.40;99.90
5556;DHT22;2801;50.972;7.856;2023-02-11T03:21:42;2.60;99.90
5556;DHT22;2801;50.972;7.856;2023-02-11T03:24:15;2.70;99.90
5556;DHT22;2801;50.972;7.856;2023-02-11T03:26:50;2.70;99.90
5556;DHT22;2801;50.972;7.856;2023-02-11T03:32:24;2.90;99.90
5556;DHT22;2801;50.972;7.856;2023-02-11T03:34:59;3.00;99.90
5556;DHT22;2801;50.972;7.856;2023-02-11T03:37:39;3.10;99.90
5556;DHT22;2801;50.972;7.856;2023-02-11T03:40:38;3.10;99.90
5556;DHT22;2801;50.972;7.856;2023-02-11T03:45:45;3.30;99.90
5556;DHT22;2801;50.972;7.856;2023-02-11T03:48:41;3.40;99.90
5556;DHT22;2801;50.972;7.856;2023-02-11T03:51:22;3.40;99.90
5556;DHT22;2801;50.972;7.856;2023-02-11T03:53:54;3.50;99.90
5556;DHT22;2801;50.972;7.856;2023-02-11T03:56:27;3.50;99.90
5556;DHT22;2801;50.972;7.856;2023-02-11T03:58:57;3.60;99.90
5556;DHT22;2801;50.972;7.856;2023-02-11T04:01:24;3.60;99.90
5556;DHT22;2801;50.972;7.856;2023-02-11T04:03:51;3.60;99.90
5556;DHT22;2801;50.972;7.856;2023-02-11T04:06:18;3.70;99.90
5556;DHT22;2801;50.972;7.856;2023-02-11T04:08:44;3.60;99.90
5556;DHT22;2801;50.972;7.856;2023-02-11T04:11:11;3.60;99.90
5556;DHT22;2801;50.972;7.856;2023-02-11T04:13:38;3.60;99.90
5556;DHT22;2801;50.972;7.856;2023-02-11T04:16:05;3.70;99.90
5556;DHT22;2801;50.972;7.856;2023-02-11T04:18:32;3.70;99.90
5556;DHT22;2801;50.972;7.856;2023-02-11T04:20:59;3.70;99.90
5556;DHT22;2801;50.972;7.856;2023-02-11T04:23:26;3.70;99.90
5556;DHT22;2801;50.972;7.856;2023-02-11T04:25:53;3.70;99.90
5556;DHT22;2801;50.972;7.856;2023-02-11T04:28:20;3.70;99.90
5556;DHT22;2801;50.972;7.856;2023-02-11T04:30:49;3.70;99.90
5556;DHT22;2801;50.972;7.856;2023-02-11T04:33:17;3.70;99.90
5556;DHT22;2801;50.972;7.856;2023-02-11T04:35:44;3.70;99.90
5556;DHT22;2801;50.972;7.856;2023-02-11T04:38:11;3.70;99.90
5556;DHT22;2801;50.972;7.856;2023-02-11T04:40:38;3.70;99.90
5556;DHT22;2801;50.972;7.856;2023-02-11T04:43:05;3.70;99.90
5556;DHT22;2801;50.972;7.856;2023-02-11T04:45:32;3.70;99.90
5556;DHT22;2801;50.972;7.856;2023-02-11T04:48:03;3.70;99.90
5556;DHT22;2801;50.972;7.856;2023-02-11T04:50:30;3.70;99.90
5556;DHT22;2801;50.972;7.856;2023-02-11T04:52:57;3.70;99.90
5556;DHT22;2801;50.972;7.856;2023-02-11T04:55:24;3.70;99.90
5556;DHT22;2801;50.972;7.856;2023-02-11T04:57:50;3.70;99.90
5556;DHT22;2801;50.972;7.856;2023-02-11T05:00:17;3.70;99.90
5556;DHT22;2801;50.972;7.856;2023-02-11T05:02:44;3.70;99.90
5556;DHT22;2801;50.972;7.856;2023-02-11T05:05:11;3.70;99.90
5556;DHT22;2801;50.972;7.856;2023-02-11T05:07:38;3.70;99.90
5556;DHT22;2801;50.972;7.856;2023-02-11T05:10:05;3.70;99.90
5556;DHT22;2801;50.972;7.856;2023-02-11T05:12:32;3.70;99.90
5556;DHT22;2801;50.972;7.856;2023-02-11T05:14:58;3.70;99.90
5556;DHT22;2801;50.972;7.856;2023-02-11T05:17:25;3.70;99.90
5556;DHT22;2801;50.972;7.856;2023-02-11T05:19:52;3.70;99.90
5556;DHT22;2801;50.972;7.856;2023-02-11T05:22:19;3.70;99.90
5556;DHT22;2801;50.972;7.856;2023-02-11T05:24:47;3.70;99.90
5556;DHT22;2801;50.972;7.856;2023-02-11T05:27:14;3.70;99.90
5556;DHT22;2801;50.972;7.856;2023-02-11T05:29:41;3.70;99.90
5556;DHT22;2801;50.972;7.856;2023-02-11T05:32:08;3.70;99.90
5556;DHT22;2801;50.972;7.856;2023-02-11T05:34:35;3.70;99.90
5556;DHT22;2801;50.972;7.856;2023-02-11T05:37:02;3.70;99.90
5556;DHT22;2801;50.972;7.856;2023-02-11T05:39:29;3.70;99.90
5556;DHT22;2801;50.972;7.856;2023-02-11T05:41:56;3.70;99.90
5556;DHT22;2801;50.972;7.856;2023-02-11T05:44:22;3.70;99.90
5556;DHT22;2801;50.972;7.856;2023-02-11T05:46:49;3.70;99.90
5556;DHT22;2801;50.972;7.856;2023-02-11T05:49:16;3.70;99.90
5556;DHT22;2801;50.972;7.856;2023-02-11T05:51:44;3.70;99.90
5556;DHT22;2801;50.972;7.856;2023-02-11T05:54:11;3.70;99.90
5556;DHT22;2801;50.972;7.856;2023-02-11T05:56:38;3.70;99.90
5556;DHT22;2801;50.972;7.856;2023-02-11T05:59:05;3.70;99.90
5556;DHT22;2801;50.972;7.856;2023-02-11T06:01:32;3.80;99.90
5556;DHT22;2801;50.972;7.856;2023-02-11T06:03:59;3.70;99.90
5556;DHT22;2801;50.972;7.856;2023-02-11T06:06:26;3.70;99.90
5556;DHT22;2801;50.972;7.856;2023-02-11T06:08:53;3.70;99.90
5556;DHT22;2801;50.972;7.856;2023-02-11T06:11:20;3.60;99.90
5556;DHT22;2801;50.972;7.856;2023-02-11T06:13:47;3.70;99.90
5556;DHT22;2801;50.972;7.856;2023-02-11T06:16:14;3.70;99.90
5556;DHT22;2801;50.972;7.856;2023-02-11T06:18:41;3.70;99.90
5556;DHT22;2801;50.972;7.856;2023-02-11T06:21:09;3.70;99.90
5556;DHT22;2801;50.972;7.856;2023-02-11T06:23:37;3.60;99.90
5556;DHT22;2801;50.972;7.856;2023-02-11T06:26:06;3.70;99.90
5556;DHT22;2801;50.972;7.856;2023-02-11T06:28:34;3.60;99.90
5556;DHT22;2801;50.972;7.856;2023-02-11T06:31:05;3.60;99.90
5556;DHT22;2801;50.972;7.856;2023-02-11T06:33:34;3.60;99.90
5556;DHT22;2801;50.972;7.856;2023-02-11T06:36:01;3.60;99.90
5556;DHT22;2801;50.972;7.856;2023-02-11T06:38:29;3.60;99.90
5556;DHT22;2801;50.972;7.856;2023-02-11T06:40:56;3.70;99.90
5556;DHT22;2801;50.972;7.856;2023-02-11T06:43:23;3.60;99.90
5556;DHT22;2801;50.972;7.856;2023-02-11T06:45:53;3.60;99.90
5556;DHT22;2801;50.972;7.856;2023-02-11T06:48:22;3.60;99.90
5556;DHT22;2801;50.972;7.856;2023-02-11T06:50:49;3.60;99.90
5556;DHT22;2801;50.972;7.856;2023-02-11T06:53:16;3.60;99.90
5556;DHT22;2801;50.972;7.856;2023-02-11T06:55:43;3.50;99.90
5556;DHT22;2801;50.972;7.856;2023-02-11T06:58:10;3.50;99.90
5556;DHT22;2801;50.972;7.856;2023-02-11T07:00:37;3.50;99.90
5556;DHT22;2801;50.972;7.856;2023-02-11T07:03:04;3.50;99.90
5556;DHT22;2801;50.972;7.856;2023-02-11T07:05:31;3.50;99.90
5556;DHT22;2801;50.972;7.856;2023-02-11T07:07:59;3.50;99.90
5556;DHT22;2801;50.972;7.856;2023-02-11T07:10:26;3.50;99.90
5556;DHT22;2801;50.972;7.856;2023-02-11T07:12:53;3.50;99.90
5556;DHT22;2801;50.972;7.856;2023-02-11T07:15:23;3.50;99.90
5556;DHT22;2801;50.972;7.856;2023-02-11T07:17:50;3.50;99.90
5556;DHT22;2801;50.972;7.856;2023-02-11T07:20:18;3.50;99.90
5556;DHT22;2801;50.972;7.856;2023-02-11T07:22:44;3.50;99.90
5556;DHT22;2801;50.972;7.856;2023-02-11T07:25:11;3.50;99.90
5556;DHT22;2801;50.972;7.856;2023-02-11T07:27:38;3.50;99.90
5556;DHT22;2801;50.972;7.856;2023-02-11T07:30:05;3.50;99.90
5556;DHT22;2801;50.972;7.856;2023-02-11T07:32:33;3.50;99.90
5556;DHT22;2801;50.972;7.856;2023-02-11T07:34:59;3.50;99.90
5556;DHT22;2801;50.972;7.856;2023-02-11T07:37:26;3.50;99.90
5556;DHT22;2801;50.972;7.856;2023-02-11T07:39:54;3.50;99.90
5556;DHT22;2801;50.972;7.856;2023-02-11T07:42:20;3.50;99.90
5556;DHT22;2801;50.972;7.856;2023-02-11T07:44:47;3.50;99.90
5556;DHT22;2801;50.972;7.856;2023-02-11T07:47:16;3.60;99.90
5556;DHT22;2801;50.972;7.856;2023-02-11T07:49:43;3.60;99.90
5556;DHT22;2801;50.972;7.856;2023-02-11T07:52:10;3.60;99.90
5556;DHT22;2801;50.972;7.856;2023-02-11T07:54:37;3.60;99.90
5556;DHT22;2801;50.972;7.856;2023-02-11T07:57:04;3.60;99.90
5556;DHT22;2801;50.972;7.856;2023-02-11T07:59:32;3.70;99.90
5556;DHT22;2801;50.972;7.856;2023-02-11T08:01:59;3.60;99.90
5556;DHT22;2801;50.972;7.856;2023-02-11T08:04:26;3.70;99.90
5556;DHT22;2801;50.972;7.856;2023-02-11T08:06:53;3.70;99.90
5556;DHT22;2801;50.972;7.856;2023-02-11T08:09:24;3.80;99.90
5556;DHT22;2801;50.972;7.856;2023-02-11T08:11:51;3.70;99.90
5556;DHT22;2801;50.972;7.856;2023-02-11T08:14:18;3.80;99.90
5556;DHT22;2801;50.972;7.856;2023-02-11T08:16:46;3.80;99.90
5556;DHT22;2801;50.972;7.856;2023-02-11T08:19:14;3.80;99.90
5556;DHT22;2801;50.972;7.856;2023-02-11T08:21:42;3.80;99.90
5556;DHT22;2801;50.972;7.856;2023-02-11T08:24:10;3.80;99.90
5556;DHT22;2801;50.972;7.856;2023-02-11T08:26:38;3.80;99.90
5556;DHT22;2801;50.972;7.856;2023-02-11T08:29:08;3.80;99.90
5556;DHT22;2801;50.972;7.856;2023-02-11T08:31:39;3.80;99.90
5556;DHT22;2801;50.972;7.856;2023-02-11T08:34:08;3.80;99.90
5556;DHT22;2801;50.972;7.856;2023-02-11T08:36:38;3.70;99.90
5556;DHT22;2801;50.972;7.856;2023-02-11T08:39:11;3.70;99.90
5556;DHT22;2801;50.972;7.856;2023-02-11T08:41:52;3.70;99.90
5556;DHT22;2801;50.972;7.856;2023-02-11T08:44:23;3.70;99.90
5556;DHT22;2801;50.972;7.856;2023-02-11T08:46:51;3.70;99.90
5556;DHT22;2801;50.972;7.856;2023-02-11T08:49:19;3.70;99.90
5556;DHT22;2801;50.972;7.856;2023-02-11T08:51:47;3.70;99.90
5556;DHT22;2801;50.972;7.856;2023-02-11T08:54:15;3.70;99.90
5556;DHT22;2801;50.972;7.856;2023-02-11T08:56:42;3.70;99.90
5556;DHT22;2801;50.972;7.856;2023-02-11T08:59:13;3.70;99.90
5556;DHT22;2801;50.972;7.856;2023-02-11T09:01:40;3.70;99.90
5556;DHT22;2801;50.972;7.856;2023-02-11T09:04:09;3.60;99.90
5556;DHT22;2801;50.972;7.856;2023-02-11T09:06:36;3.60;99.90
5556;DHT22;2801;50.972;7.856;2023-02-11T09:09:03;3.70;99.90
5556;DHT22;2801;50.972;7.856;2023-02-11T09:11:33;3.60;99.90
5556;DHT22;2801;50.972;7.856;2023-02-11T09:14:02;3.60;99.90
5556;DHT22;2801;50.972;7.856;2023-02-11T09:16:32;3.60;99.90
5556;DHT22;2801;50.972;7.856;2023-02-11T09:19:04;3.60;99.90
5556;DHT22;2801;50.972;7.856;2023-02-11T09:21:31;3.60;99.90
5556;DHT22;2801;50.972;7.856;2023-02-11T09:23:58;3.60;99.90
5556;DHT22;2801;50.972;7.856;2023-02-11T09:26:32;3.60;99.90
5556;DHT22;2801;50.972;7.856;2023-02-11T09:29:03;3.60;99.90
5556;DHT22;2801;50.972;7.856;2023-02-11T09:31:31;3.60;99.90
5556;DHT22;2801;50.972;7.856;2023-02-11T09:34:03;3.60;99.90
5556;DHT22;2801;50.972;7.856;2023-02-11T09:36:35;3.70;99.90
5556;DHT22;2801;50.972;7.856;2023-02-11T09:39:07;3.70;99.90
5556;DHT22;2801;50.972;7.856;2023-02-11T09:44:45;3.70;99.90
5556;DHT22;2801;50.972;7.856;2023-02-11T09:47:33;3.70;99.90
5556;DHT22;2801;50.972;7.856;2023-02-11T09:50:23;3.70;99.90
5556;DHT22;2801;50.972;7.856;2023-02-11T09:55:59;3.80;99.90
5556;DHT22;2801;50.972;7.856;2023-02-11T09:58:36;3.80;99.90
5556;DHT22;2801;50.972;7.856;2023-02-11T10:01:07;3.80;99.90
5556;DHT22;2801;50.972;7.856;2023-02-11T10:06:51;3.80;99.90
5556;DHT22;2801;50.972;7.856;2023-02-11T10:12:37;3.90;99.90
5556;DHT22;2801;50.972;7.856;2023-02-11T10:18:02;3.90;99.90
5556;DHT22;2801;50.972;7.856;2023-02-11T10:20:47;4.00;99.90
5556;DHT22;2801;50.972;7.856;2023-02-11T10:23:26;4.00;99.90
5556;DHT22;2801;50.972;7.856;2023-02-11T10:25:57;4.00;99.90
5556;DHT22;2801;50.972;7.856;2023-02-11T10:28:35;4.00;99.90
5556;DHT22;2801;50.972;7.856;2023-02-11T10:31:18;4.00;99.90
5556;DHT22;2801;50.972;7.856;2023-02-11T10:34:19;4.00;99.90
5556;DHT22;2801;50.972;7.856;2023-02-11T10:36:46;4.10;99.90
5556;DHT22;2801;50.972;7.856;2023-02-11T10:39:15;4.10;99.90
5556;DHT22;2801;50.972;7.856;2023-02-11T10:41:48;4.20;99.90
5556;DHT22;2801;50.972;7.856;2023-02-11T10:44:30;4.20;99.90
5556;DHT22;2801;50.972;7.856;2023-02-11T10:47:03;4.20;99.90
5556;DHT22;2801;50.972;7.856;2023-02-11T10:49:44;4.20;99.90
5556;DHT22;2801;50.972;7.856;2023-02-11T10:52:23;4.30;99.90
5556;DHT22;2801;50.972;7.856;2023-02-11T10:55:08;4.20;99.90
5556;DHT22;2801;50.972;7.856;2023-02-11T10:57:55;4.30;99.90
5556;DHT22;2801;50.972;7.856;2023-02-11T11:00:35;4.30;99.90
5556;DHT22;2801;50.972;7.856;2023-02-11T11:03:25;4.30;99.90
5556;DHT22;2801;50.972;7.856;2023-02-11T11:05:59;4.30;99.90
5556;DHT22;2801;50.972;7.856;2023-02-11T11:08:49;4.30;99.90
5556;DHT22;2801;50.972;7.856;2023-02-11T11:11:19;4.30;99.90
5556;DHT22;2801;50.972;7.856;2023-02-11T11:13:57;4.30;99.90
5556;DHT22;2801;50.972;7.856;2023-02-11T11:16:30;4.30;99.90
5556;DHT22;2801;50.972;7.856;2023-02-11T11:24:32;4.40;99.90
5556;DHT22;2801;50.972;7.856;2023-02-11T11:27:06;4.40;99.90
5556;DHT22;2801;50.972;7.856;2023-02-11T11:29:45;4.40;99.90
5556;DHT22;2801;50.972;7.856;2023-02-11T11:32:29;4.50;99.90
5556;DHT22;2801;50.972;7.856;2023-02-11T11:35:19;4.50;99.90
5556;DHT22;2801;50.972;7.856;2023-02-11T11:37:58;4.50;99.90
5556;DHT22;2801;50.972;7.856;2023-02-11T11:40:30;4.50;99.90
5556;DHT22;2801;50.972;7.856;2023-02-11T11:45:31;4.60;99.90
5556;DHT22;2801;50.972;7.856;2023-02-11T11:50:51;4.60;99.90
5556;DHT22;2801;50.972;7.856;2023-02-11T11:56:15;4.70;99.90
5556;DHT22;2801;50.972;7.856;2023-02-11T11:58:44;4.70;99.90
5556;DHT22;2801;50.972;7.856;2023-02-11T12:07:47;4.80;99.90
5556;DHT22;2801;50.972;7.856;2023-02-11T12:10:29;4.80;99.90
5556;DHT22;2801;50.972;7.856;2023-02-11T12:13:19;4.80;99.90
5556;DHT22;2801;50.972;7.856;2023-02-11T12:16:29;4.90;99.90
5556;DHT22;2801;50.972;7.856;2023-02-11T12:22:08;4.90;99.90
5556;DHT22;2801;50.972;7.856;2023-02-11T12:45:37;5.00;99.90
5556;DHT22;2801;50.972;7.856;2023-02-11T12:54:53;5.00;99.90
5556;DHT22;2801;50.972;7.856;2023-02-11T12:57:30;5.10;99.90
5556;DHT22;2801;50.972;7.856;2023-02-11T13:00:21;5.00;99.90
5556;DHT22;2801;50.972;7.856;2023-02-11T13:02:55;5.10;99.90
5556;DHT22;2801;50.972;7.856;2023-02-11T13:05:43;5.10;99.90
5556;DHT22;2801;50.972;7.856;2023-02-11T13:08:29;5.10;99.90
5556;DHT22;2801;50.972;7.856;2023-02-11T13:11:02;5.10;99.90
5556;DHT22;2801;50.972;7.856;2023-02-11T13:13:46;5.10;99.90
5556;DHT22;2801;50.972;7.856;2023-02-11T13:19:34;5.10;99.90
5556;DHT22;2801;50.972;7.856;2023-02-11T13:22:18;5.10;99.90
5556;DHT22;2801;50.972;7.856;2023-02-11T13:25:05;5.10;99.90
5556;DHT22;2801;50.972;7.856;2023-02-11T13:30:40;5.10;99.90
5556;DHT22;2801;50.972;7.856;2023-02-11T13:38:24;5.10;99.90
5556;DHT22;2801;50.972;7.856;2023-02-11T13:43:26;5.10;99.90
5556;DHT22;2801;50.972;7.856;2023-02-11T13:46:03;5.00;99.90
5556;DHT22;2801;50.972;7.856;2023-02-11T13:51:14;5.10;99.90
5556;DHT22;2801;50.972;7.856;2023-02-11T13:53:54;5.10;99.90
5556;DHT22;2801;50.972;7.856;2023-02-11T14:11:00;5.10;99.90
5556;DHT22;2801;50.972;7.856;2023-02-11T14:13:35;5.10;99.90
5556;DHT22;2801;50.972;7.856;2023-02-11T14:16:23;5.10;99.90
5556;DHT22;2801;50.972;7.856;2023-02-11T14:19:03;5.10;99.90
5556;DHT22;2801;50.972;7.856;2023-02-11T14:21:37;5.10;99.90
5556;DHT22;2801;50.972;7.856;2023-02-11T14:26:50;5.20;99.90
5556;DHT22;2801;50.972;7.856;2023-02-11T14:41:30;5.10;99.90
5556;DHT22;2801;50.972;7.856;2023-02-11T14:44:06;5.10;99.90
5556;DHT22;2801;50.972;7.856;2023-02-11T14:46:47;5.20;99.90
5556;DHT22;2801;50.972;7.856;2023-02-11T14:49:33;5.20;99.90
5556;DHT22;2801;50.972;7.856;2023-02-11T14:52:33;5.20;99.90
5556;DHT22;2801;50.972;7.856;2023-02-11T14:55:31;5.20;99.90
5556;DHT22;2801;50.972;7.856;2023-02-11T14:58:16;5.20;99.90
5556;DHT22;2801;50.972;7.856;2023-02-11T15:03:40;5.10;99.90
5556;DHT22;2801;50.972;7.856;2023-02-11T15:06:21;5.10;99.90
5556;DHT22;2801;50.972;7.856;2023-02-11T15:11:38;5.10;99.90
5556;DHT22;2801;50.972;7.856;2023-02-11T15:14:10;5.10;99.90
5556;DHT22;2801;50.972;7.856;2023-02-11T15:16:44;5.10;99.90
5556;DHT22;2801;50.972;7.856;2023-02-11T15:19:25;5.10;99.90
5556;DHT22;2801;50.972;7.856;2023-02-11T15:21:54;5.10;99.90
5556;DHT22;2801;50.972;7.856;2023-02-11T15:24:28;5.10;99.90
5556;DHT22;2801;50.972;7.856;2023-02-11T15:27:17;5.10;99.90
5556;DHT22;2801;50.972;7.856;2023-02-11T15:29:46;5.10;99.90
5556;DHT22;2801;50.972;7.856;2023-02-11T15:32:23;5.10;99.90
5556;DHT22;2801;50.972;7.856;2023-02-11T15:34:53;5.10;99.90
5556;DHT22;2801;50.972;7.856;2023-02-11T15:37:22;5.10;99.90
5556;DHT22;2801;50.972;7.856;2023-02-11T15:40:09;5.10;99.90
5556;DHT22;2801;50.972;7.856;2023-02-11T15:42:37;5.10;99.90
5556;DHT22;2801;50.972;7.856;2023-02-11T15:45:25;5.10;99.90
5556;DHT22;2801;50.972;7.856;2023-02-11T15:50:50;5.20;99.90
5556;DHT22;2801;50.972;7.856;2023-02-11T15:53:41;5.20;99.90
5556;DHT22;2801;50.972;7.856;2023-02-11T15:58:45;5.20;99.90
5556;DHT22;2801;50.972;7.856;2023-02-11T16:01:14;5.20;99.90
5556;DHT22;2801;50.972;7.856;2023-02-11T16:03:42;5.20;99.90
5556;DHT22;2801;50.972;7.856;2023-02-11T16:06:18;5.20;99.90
5556;DHT22;2801;50.972;7.856;2023-02-11T16:09:22;5.20;99.90
5556;DHT22;2801;50.972;7.856;2023-02-11T16:11:57;5.10;99.90
5556;DHT22;2801;50.972;7.856;2023-02-11T16:16:57;5.10;99.90
5556;DHT22;2801;50.972;7.856;2023-02-11T16:19:27;5.10;99.90
5556;DHT22;2801;50.972;7.856;2023-02-11T16:21:57;5.10;99.90
5556;DHT22;2801;50.972;7.856;2023-02-11T16:24:29;5.10;99.90
5556;DHT22;2801;50.972;7.856;2023-02-11T16:27:03;5.10;99.90
5556;DHT22;2801;50.972;7.856;2023-02-11T16:29:35;5.10;99.90
5556;DHT22;2801;50.972;7.856;2023-02-11T16:34:40;5.10;99.90
5556;DHT22;2801;50.972;7.856;2023-02-11T16:37:08;5.10;99.90
5556;DHT22;2801;50.972;7.856;2023-02-11T16:39:35;5.10;99.90
5556;DHT22;2801;50.972;7.856;2023-02-11T16:42:03;5.00;99.90
5556;DHT22;2801;50.972;7.856;2023-02-11T16:44:33;5.20;99.90
5556;DHT22;2801;50.972;7.856;2023-02-11T16:47:02;5.10;99.90
5556;DHT22;2801;50.972;7.856;2023-02-11T16:49:33;5.00;99.90
5556;DHT22;2801;50.972;7.856;2023-02-11T16:52:05;5.00;99.90
5556;DHT22;2801;50.972;7.856;2023-02-11T16:54:38;5.00;99.90
5556;DHT22;2801;50.972;7.856;2023-02-11T16:57:13;5.00;99.90
5556;DHT22;2801;50.972;7.856;2023-02-11T16:59:42;5.00;99.90
5556;DHT22;2801;50.972;7.856;2023-02-11T17:04:55;5.00;99.90
5556;DHT22;2801;50.972;7.856;2023-02-11T17:07:25;5.00;99.90
5556;DHT22;2801;50.972;7.856;2023-02-11T17:09:52;5.00;99.90
5556;DHT22;2801;50.972;7.856;2023-02-11T17:12:19;5.00;99.90
5556;DHT22;2801;50.972;7.856;2023-02-11T17:14:47;5.00;99.90
5556;DHT22;2801;50.972;7.856;2023-02-11T17:17:14;5.00;99.90
5556;DHT22;2801;50.972;7.856;2023-02-11T17:19:41;5.00;99.90
5556;DHT22;2801;50.972;7.856;2023-02-11T17:22:09;5.00;99.90
5556;DHT22;2801;50.972;7.856;2023-02-11T17:24:37;5.00;99.90
5556;DHT22;2801;50.972;7.856;2023-02-11T17:27:03;5.00;99.90
5556;DHT22;2801;50.972;7.856;2023-02-11T17:29:30;5.00;99.90
5556;DHT22;2801;50.972;7.856;2023-02-11T17:31:57;5.00;99.90
5556;DHT22;2801;50.972;7.856;2023-02-11T17:34:24;4.90;99.90
5556;DHT22;2801;50.972;7.856;2023-02-11T17:36:51;4.90;99.90
5556;DHT22;2801;50.972;7.856;2023-02-11T17:39:18;4.90;99.90
5556;DHT22;2801;50.972;7.856;2023-02-11T17:41:46;4.90;99.90
5556;DHT22;2801;50.972;7.856;2023-02-11T17:44:13;4.90;99.90
5556;DHT22;2801;50.972;7.856;2023-02-11T17:46:42;4.90;99.90
5556;DHT22;2801;50.972;7.856;2023-02-11T17:49:10;4.90;99.90
5556;DHT22;2801;50.972;7.856;2023-02-11T17:51:38;4.90;99.90
5556;DHT22;2801;50.972;7.856;2023-02-11T17:54:09;4.80;99.90
5556;DHT22;2801;50.972;7.856;2023-02-11T17:56:39;4.80;99.90
5556;DHT22;2801;50.972;7.856;2023-02-11T17:59:08;4.80;99.90
5556;DHT22;2801;50.972;7.856;2023-02-11T18:01:37;4.80;99.90
5556;DHT22;2801;50.972;7.856;2023-02-11T18:04:06;4.90;99.90
5556;DHT22;2801;50.972;7.856;2023-02-11T18:06:33;4.80;99.90
5556;DHT22;2801;50.972;7.856;2023-02-11T18:09:01;4.90;99.90
5556;DHT22;2801;50.972;7.856;2023-02-11T18:11:31;4.90;99.90
5556;DHT22;2801;50.972;7.856;2023-02-11T18:14:00;4.90;99.90
5556;DHT22;2801;50.972;7.856;2023-02-11T18:16:28;4.90;99.90
5556;DHT22;2801;50.972;7.856;2023-02-11T18:18:57;4.90;99.90
5556;DHT22;2801;50.972;7.856;2023-02-11T18:21:24;5.00;99.90
5556;DHT22;2801;50.972;7.856;2023-02-11T18:23:51;5.00;99.90
5556;DHT22;2801;50.972;7.856;2023-02-11T18:26:20;5.00;99.90
5556;DHT22;2801;50.972;7.856;2023-02-11T18:28:47;5.00;99.90
5556;DHT22;2801;50.972;7.856;2023-02-11T18:31:14;5.00;99.90
5556;DHT22;2801;50.972;7.856;2023-02-11T18:33:42;5.00;99.90
5556;DHT22;2801;50.972;7.856;2023-02-11T18:36:12;5.00;99.90
5556;DHT22;2801;50.972;7.856;2023-02-11T18:38:41;5.00;99.90
5556;DHT22;2801;50.972;7.856;2023-02-11T18:41:12;5.00;99.90
5556;DHT22;2801;50.972;7.856;2023-02-11T18:43:39;5.10;99.90
5556;DHT22;2801;50.972;7.856;2023-02-11T18:46:09;5.00;99.90
5556;DHT22;2801;50.972;7.856;2023-02-11T18:48:39;5.00;99.90
5556;DHT22;2801;50.972;7.856;2023-02-11T18:51:15;5.00;99.90
5556;DHT22;2801;50.972;7.856;2023-02-11T18:53:44;5.10;99.90
5556;DHT22;2801;50.972;7.856;2023-02-11T18:56:17;5.10;99.90
5556;DHT22;2801;50.972;7.856;2023-02-11T18:58:46;5.10;99.90
5556;DHT22;2801;50.972;7.856;2023-02-11T19:01:20;5.10;99.90
5556;DHT22;2801;50.972;7.856;2023-02-11T19:03:50;5.10;99.90
5556;DHT22;2801;50.972;7.856;2023-02-11T19:06:26;5.10;99.90
5556;DHT22;2801;50.972;7.856;2023-02-11T19:08:58;5.10;99.90
5556;DHT22;2801;50.972;7.856;2023-02-11T19:11:29;5.10;99.90
5556;DHT22;2801;50.972;7.856;2023-02-11T19:14:14;5.20;99.90
5556;DHT22;2801;50.972;7.856;2023-02-11T19:16:44;5.20;99.90
5556;DHT22;2801;50.972;7.856;2023-02-11T19:19:12;5.10;99.90
5556;DHT22;2801;50.972;7.856;2023-02-11T19:21:44;5.10;99.90
5556;DHT22;2801;50.972;7.856;2023-02-11T19:24:12;5.20;99.90
5556;DHT22;2801;50.972;7.856;2023-02-11T19:26:42;5.10;99.90
5556;DHT22;2801;50.972;7.856;2023-02-11T19:29:08;5.20;99.90